Terminal Aerodrome Forecast
Issued by NWS Springfield, MO

Home | Current Version | Previous Version | Text Only | Print | Product List | Glossary On
Versions: 1 2 3 4 5 6 7 8 9 10 11 12 13 14 15 16 17 18 19 20
000
FTUS43 KSGF 252357 CCB
TAFSGF
TAF COR
KSGF 252357Z 2600/2624 07003KT 5SM -RA BKN030 OVC040
      TEMPO 2600/2602 2SM -RA OVC012
     FM260200 04005KT 5SM -SHRA OVC015
     FM260400 01005KT P6SM VCSH OVC015
      TEMPO 2604/2607 2SM -SHRA OVC008
     FM260900 35005KT P6SM BKN010
     FM261100 35005KT P6SM OVC004
     FM261300 33005KT P6SM BKN020=

USA.gov is the U.S. government's official web portal to all federal, state and local government web resources and services.